<?xml version="1.0" encoding="UTF-8" standalone="no" ?>
<gpx xmlns="http://www.topografix.com/GPX/1/1" xmlns:xsi="http://www.w3.org/2001/XMLSchema-instance" xsi:schemaLocation="http://www.topografix.com/GPX/1/1 http://www.topografix.com/GPX/1/1/gpx.xsd" version="1.1" creator="VisuGPX - https://www.visugpx.com">
  <metadata>
    <name>Norvège</name>
  </metadata>
  <trk>
    <name><![CDATA[Tour d'Europe: étape 057]]></name>
    <trkseg>
      <trkpt lat="68.97034" lon="15.6425">
        <ele>49.557575</ele>
        <time>2020-08-24T08:05:22.251Z</time>
      </trkpt>
      <trkpt lat="68.97169" lon="15.63816">
        <ele>48.396474</ele>
        <time>2020-08-24T08:06:08.254Z</time>
      </trkpt>
      <trkpt lat="68.97372" lon="15.64151">
        <ele>46.36245</ele>
        <time>2020-08-24T08:06:50.254Z</time>
      </trkpt>
      <trkpt lat="68.97544" lon="15.64488">
        <ele>46.688936</ele>
        <time>2020-08-24T08:07:31.296Z</time>
      </trkpt>
      <trkpt lat="68.97744" lon="15.6455">
        <ele>45.253804</ele>
        <time>2020-08-24T08:08:13.276Z</time>
      </trkpt>
      <trkpt lat="68.9797" lon="15.64669">
        <ele>49.056232</ele>
        <time>2020-08-24T08:09:13.258Z</time>
      </trkpt>
      <trkpt lat="68.98077" lon="15.642">
        <ele>49.105592</ele>
        <time>2020-08-24T08:10:05.291Z</time>
      </trkpt>
      <trkpt lat="68.98272" lon="15.64331">
        <ele>46.052555</ele>
        <time>2020-08-24T08:10:47.251Z</time>
      </trkpt>
      <trkpt lat="68.9842" lon="15.64781">
        <ele>46.005512</ele>
        <time>2020-08-24T08:11:28.263Z</time>
      </trkpt>
      <trkpt lat="68.98581" lon="15.65185">
        <ele>44.052972</ele>
        <time>2020-08-24T08:12:08.330Z</time>
      </trkpt>
      <trkpt lat="68.9877" lon="15.64972">
        <ele>42.91611</ele>
        <time>2020-08-24T08:12:48.249Z</time>
      </trkpt>
      <trkpt lat="68.98961" lon="15.64717">
        <ele>43.876446</ele>
        <time>2020-08-24T08:13:31.254Z</time>
      </trkpt>
      <trkpt lat="68.99135" lon="15.64486">
        <ele>47.582648</ele>
        <time>2020-08-24T08:14:12.259Z</time>
      </trkpt>
      <trkpt lat="68.99329" lon="15.64225">
        <ele>55.498891</ele>
        <time>2020-08-24T08:15:24.284Z</time>
      </trkpt>
      <trkpt lat="68.99529" lon="15.63964">
        <ele>57.064129</ele>
        <time>2020-08-24T08:16:24.289Z</time>
      </trkpt>
      <trkpt lat="68.99729" lon="15.63696">
        <ele>58.954066</ele>
        <time>2020-08-24T08:17:24.291Z</time>
      </trkpt>
      <trkpt lat="68.99934" lon="15.63425">
        <ele>63.17949</ele>
        <time>2020-08-24T08:18:27.261Z</time>
      </trkpt>
      <trkpt lat="69.00066" lon="15.62986">
        <ele>63.126261</ele>
        <time>2020-08-24T08:19:25.274Z</time>
      </trkpt>
      <trkpt lat="69.00171" lon="15.62339">
        <ele>59.883718</ele>
        <time>2020-08-24T08:20:06.268Z</time>
      </trkpt>
      <trkpt lat="69.00263" lon="15.61761">
        <ele>60.501995</ele>
        <time>2020-08-24T08:20:50.272Z</time>
      </trkpt>
      <trkpt lat="69.00364" lon="15.61145">
        <ele>64.140852</ele>
        <time>2020-08-24T08:21:53.269Z</time>
      </trkpt>
      <trkpt lat="69.00444" lon="15.60654">
        <ele>63.31172</ele>
        <time>2020-08-24T08:22:33.251Z</time>
      </trkpt>
      <trkpt lat="69.00545" lon="15.60031">
        <ele>58.767436</ele>
        <time>2020-08-24T08:23:13.290Z</time>
      </trkpt>
      <trkpt lat="69.00655" lon="15.59342">
        <ele>54.316023</ele>
        <time>2020-08-24T08:23:53.255Z</time>
      </trkpt>
      <trkpt lat="69.00752" lon="15.58707">
        <ele>53.637598</ele>
        <time>2020-08-24T08:24:33.246Z</time>
      </trkpt>
      <trkpt lat="69.00809" lon="15.58107">
        <ele>59.424944</ele>
        <time>2020-08-24T08:25:33.275Z</time>
      </trkpt>
      <trkpt lat="69.00861" lon="15.57571">
        <ele>65.827196</ele>
        <time>2020-08-24T08:26:42.272Z</time>
      </trkpt>
      <trkpt lat="69.00919" lon="15.56966">
        <ele>67.711725</ele>
        <time>2020-08-24T08:27:44.261Z</time>
      </trkpt>
      <trkpt lat="69.00972" lon="15.56407">
        <ele>70.867144</ele>
        <time>2020-08-24T08:28:44.256Z</time>
      </trkpt>
      <trkpt lat="69.00961" lon="15.55647">
        <ele>63.292699</ele>
        <time>2020-08-24T08:29:24.258Z</time>
      </trkpt>
      <trkpt lat="69.00895" lon="15.55103">
        <ele>52.692652</ele>
        <time>2020-08-24T08:29:44.273Z</time>
      </trkpt>
      <trkpt lat="69.00871" lon="15.54475">
        <ele>42.436191</ele>
        <time>2020-08-24T08:30:07.253Z</time>
      </trkpt>
      <trkpt lat="69.0089" lon="15.53845">
        <ele>44.458987</ele>
        <time>2020-08-24T08:30:56.292Z</time>
      </trkpt>
      <trkpt lat="69.00907" lon="15.53239">
        <ele>51.079055</ele>
        <time>2020-08-24T08:32:09.296Z</time>
      </trkpt>
      <trkpt lat="69.00938" lon="15.52661">
        <ele>50.729864</ele>
        <time>2020-08-24T08:32:54.260Z</time>
      </trkpt>
      <trkpt lat="69.0106" lon="15.52119">
        <ele>51.258716</ele>
        <time>2020-08-24T08:33:48.304Z</time>
      </trkpt>
      <trkpt lat="69.01226" lon="15.51678">
        <ele>55.25259</ele>
        <time>2020-08-24T08:34:43.260Z</time>
      </trkpt>
      <trkpt lat="69.01427" lon="15.5144">
        <ele>57.148264</ele>
        <time>2020-08-24T08:35:32.280Z</time>
      </trkpt>
      <trkpt lat="69.01644" lon="15.51302">
        <ele>59.555816</ele>
        <time>2020-08-24T08:36:29.302Z</time>
      </trkpt>
      <trkpt lat="69.01874" lon="15.51501">
        <ele>60.954183</ele>
        <time>2020-08-24T08:37:27.312Z</time>
      </trkpt>
      <trkpt lat="69.02082" lon="15.51451">
        <ele>60.698809</ele>
        <time>2020-08-24T08:38:14.295Z</time>
      </trkpt>
      <trkpt lat="69.02275" lon="15.5152">
        <ele>61.38413</ele>
        <time>2020-08-24T08:38:55.279Z</time>
      </trkpt>
      <trkpt lat="69.025" lon="15.51766">
        <ele>60.876014</ele>
        <time>2020-08-24T08:39:50.254Z</time>
      </trkpt>
      <trkpt lat="69.02696" lon="15.52072">
        <ele>61.530326</ele>
        <time>2020-08-24T08:40:40.283Z</time>
      </trkpt>
      <trkpt lat="69.0287" lon="15.52353">
        <ele>60.747825</ele>
        <time>2020-08-24T08:41:20.263Z</time>
      </trkpt>
      <trkpt lat="69.03053" lon="15.52637">
        <ele>61.269317</ele>
        <time>2020-08-24T08:42:00.258Z</time>
      </trkpt>
      <trkpt lat="69.03234" lon="15.52875">
        <ele>60.275764</ele>
        <time>2020-08-24T08:42:40.248Z</time>
      </trkpt>
      <trkpt lat="69.0345" lon="15.52585">
        <ele>54.557117</ele>
        <time>2020-08-24T08:43:22.271Z</time>
      </trkpt>
      <trkpt lat="69.03663" lon="15.52147">
        <ele>47.930135</ele>
        <time>2020-08-24T08:44:02.268Z</time>
      </trkpt>
      <trkpt lat="69.03871" lon="15.51747">
        <ele>45.440031</ele>
        <time>2020-08-24T08:44:42.274Z</time>
      </trkpt>
      <trkpt lat="69.04105" lon="15.51585">
        <ele>47.217038</ele>
        <time>2020-08-24T08:45:22.249Z</time>
      </trkpt>
      <trkpt lat="69.04312" lon="15.51536">
        <ele>49.269533</ele>
        <time>2020-08-24T08:46:02.268Z</time>
      </trkpt>
      <trkpt lat="69.04533" lon="15.51545">
        <ele>49.927443</ele>
        <time>2020-08-24T08:46:44.258Z</time>
      </trkpt>
      <trkpt lat="69.04722" lon="15.51717">
        <ele>49.819883</ele>
        <time>2020-08-24T08:47:25.267Z</time>
      </trkpt>
      <trkpt lat="69.0488" lon="15.52048">
        <ele>49.82808</ele>
        <time>2020-08-24T08:48:05.263Z</time>
      </trkpt>
      <trkpt lat="69.05054" lon="15.52391">
        <ele>49.80855</ele>
        <time>2020-08-24T08:48:45.291Z</time>
      </trkpt>
      <trkpt lat="69.05258" lon="15.5261">
        <ele>50.68707</ele>
        <time>2020-08-24T08:49:27.282Z</time>
      </trkpt>
      <trkpt lat="69.05456" lon="15.52743">
        <ele>48.863985</ele>
        <time>2020-08-24T08:50:07.291Z</time>
      </trkpt>
      <trkpt lat="69.0569" lon="15.53048">
        <ele>45.595061</ele>
        <time>2020-08-24T08:50:47.276Z</time>
      </trkpt>
      <trkpt lat="69.05927" lon="15.53314">
        <ele>44.019571</ele>
        <time>2020-08-24T08:51:27.286Z</time>
      </trkpt>
      <trkpt lat="69.06129" lon="15.53499">
        <ele>44.180689</ele>
        <time>2020-08-24T08:52:07.280Z</time>
      </trkpt>
      <trkpt lat="69.06349" lon="15.53701">
        <ele>44.788881</ele>
        <time>2020-08-24T08:52:49.277Z</time>
      </trkpt>
      <trkpt lat="69.06545" lon="15.53883">
        <ele>46.081122</ele>
        <time>2020-08-24T08:53:29.273Z</time>
      </trkpt>
      <trkpt lat="69.06757" lon="15.5408">
        <ele>48.004537</ele>
        <time>2020-08-24T08:54:21.288Z</time>
      </trkpt>
      <trkpt lat="69.06938" lon="15.5435">
        <ele>46.400686</ele>
        <time>2020-08-24T08:55:02.298Z</time>
      </trkpt>
      <trkpt lat="69.07093" lon="15.54808">
        <ele>46.628425</ele>
        <time>2020-08-24T08:55:44.269Z</time>
      </trkpt>
      <trkpt lat="69.07236" lon="15.5521">
        <ele>49.664905</ele>
        <time>2020-08-24T08:56:27.255Z</time>
      </trkpt>
      <trkpt lat="69.07408" lon="15.5554">
        <ele>49.393039</ele>
        <time>2020-08-24T08:57:07.264Z</time>
      </trkpt>
      <trkpt lat="69.07628" lon="15.55776">
        <ele>46.764489</ele>
        <time>2020-08-24T08:57:47.268Z</time>
      </trkpt>
      <trkpt lat="69.07796" lon="15.56182">
        <ele>46.853486</ele>
        <time>2020-08-24T08:58:27.254Z</time>
      </trkpt>
      <trkpt lat="69.07977" lon="15.56575">
        <ele>48.024661</ele>
        <time>2020-08-24T08:59:09.261Z</time>
      </trkpt>
      <trkpt lat="69.08188" lon="15.56454">
        <ele>46.702903</ele>
        <time>2020-08-24T08:59:49.307Z</time>
      </trkpt>
      <trkpt lat="69.08355" lon="15.56128">
        <ele>45.742154</ele>
        <time>2020-08-24T09:00:30.289Z</time>
      </trkpt>
      <trkpt lat="69.08495" lon="15.55686">
        <ele>44.083862</ele>
        <time>2020-08-24T09:01:10.269Z</time>
      </trkpt>
      <trkpt lat="69.08735" lon="15.55658">
        <ele>49.030808</ele>
        <time>2020-08-24T09:02:09.283Z</time>
      </trkpt>
      <trkpt lat="69.08869" lon="15.56047">
        <ele>51.990848</ele>
        <time>2020-08-24T09:03:24.290Z</time>
      </trkpt>
      <trkpt lat="69.0903" lon="15.56459">
        <ele>54.494717</ele>
        <time>2020-08-24T09:04:04.280Z</time>
      </trkpt>
      <trkpt lat="69.09227" lon="15.56606">
        <ele>59.740129</ele>
        <time>2020-08-24T09:05:31.275Z</time>
      </trkpt>
      <trkpt lat="69.09417" lon="15.56905">
        <ele>51.689067</ele>
        <time>2020-08-24T09:05:57.272Z</time>
      </trkpt>
      <trkpt lat="69.09645" lon="15.56722">
        <ele>55.166407</ele>
        <time>2020-08-24T09:06:49.300Z</time>
      </trkpt>
      <trkpt lat="69.09817" lon="15.564">
        <ele>58.204469</ele>
        <time>2020-08-24T09:07:43.266Z</time>
      </trkpt>
      <trkpt lat="69.10014" lon="15.56273">
        <ele>56.29281</ele>
        <time>2020-08-24T09:08:23.264Z</time>
      </trkpt>
      <trkpt lat="69.10181" lon="15.56533">
        <ele>55.137726</ele>
        <time>2020-08-24T09:09:03.275Z</time>
      </trkpt>
      <trkpt lat="69.10345" lon="15.57024">
        <ele>52.292442</ele>
        <time>2020-08-24T09:09:45.272Z</time>
      </trkpt>
      <trkpt lat="69.10487" lon="15.57265">
        <ele>47.773801</ele>
        <time>2020-08-24T09:14:37.276Z</time>
      </trkpt>
      <trkpt lat="69.10474" lon="15.56811">
        <ele>46.344034</ele>
        <time>2020-08-24T09:19:31.274Z</time>
      </trkpt>
      <trkpt lat="69.10485" lon="15.57267">
        <ele>48.088311</ele>
        <time>2020-08-24T09:27:06.254Z</time>
      </trkpt>
      <trkpt lat="69.10484" lon="15.57603">
        <ele>50.765169</ele>
        <time>2020-08-24T09:38:51.274Z</time>
      </trkpt>
      <trkpt lat="69.10508" lon="15.58272">
        <ele>46.554453</ele>
        <time>2020-08-24T09:39:33.299Z</time>
      </trkpt>
      <trkpt lat="69.10576" lon="15.58806">
        <ele>50.103164</ele>
        <time>2020-08-24T09:40:37.294Z</time>
      </trkpt>
      <trkpt lat="69.10698" lon="15.59379">
        <ele>48.042361</ele>
        <time>2020-08-24T09:41:25.286Z</time>
      </trkpt>
      <trkpt lat="69.10825" lon="15.599">
        <ele>46.237731</ele>
        <time>2020-08-24T09:42:05.280Z</time>
      </trkpt>
      <trkpt lat="69.109" lon="15.6051">
        <ele>47.020339</ele>
        <time>2020-08-24T09:42:47.276Z</time>
      </trkpt>
      <trkpt lat="69.11063" lon="15.60835">
        <ele>46.845961</ele>
        <time>2020-08-24T09:43:27.313Z</time>
      </trkpt>
      <trkpt lat="69.11247" lon="15.61111">
        <ele>47.34982</ele>
        <time>2020-08-24T09:44:07.290Z</time>
      </trkpt>
      <trkpt lat="69.11426" lon="15.61398">
        <ele>46.458647</ele>
        <time>2020-08-24T09:44:51.291Z</time>
      </trkpt>
      <trkpt lat="69.11657" lon="15.61617">
        <ele>42.793228</ele>
        <time>2020-08-24T09:45:31.277Z</time>
      </trkpt>
      <trkpt lat="69.11874" lon="15.61552">
        <ele>41.505604</ele>
        <time>2020-08-24T09:46:17.275Z</time>
      </trkpt>
      <trkpt lat="69.12083" lon="15.61516">
        <ele>43.661121</ele>
        <time>2020-08-24T09:47:17.304Z</time>
      </trkpt>
      <trkpt lat="69.12242" lon="15.61893">
        <ele>44.686476</ele>
        <time>2020-08-24T09:48:07.273Z</time>
      </trkpt>
      <trkpt lat="69.12351" lon="15.62389">
        <ele>45.861939</ele>
        <time>2020-08-24T09:48:47.279Z</time>
      </trkpt>
      <trkpt lat="69.12467" lon="15.62996">
        <ele>47.162347</ele>
        <time>2020-08-24T09:49:51.271Z</time>
      </trkpt>
      <trkpt lat="69.12507" lon="15.63634">
        <ele>46.335633</ele>
        <time>2020-08-24T09:50:31.294Z</time>
      </trkpt>
      <trkpt lat="69.12556" lon="15.64155">
        <ele>47.944642</ele>
        <time>2020-08-24T09:51:11.306Z</time>
      </trkpt>
      <trkpt lat="69.12655" lon="15.64657">
        <ele>51.491704</ele>
        <time>2020-08-24T09:52:05.304Z</time>
      </trkpt>
      <trkpt lat="69.12751" lon="15.65167">
        <ele>50.977659</ele>
        <time>2020-08-24T09:52:51.310Z</time>
      </trkpt>
      <trkpt lat="69.12785" lon="15.65877">
        <ele>47.302312</ele>
        <time>2020-08-24T09:53:33.312Z</time>
      </trkpt>
      <trkpt lat="69.12843" lon="15.66542">
        <ele>46.627823</ele>
        <time>2020-08-24T09:54:13.279Z</time>
      </trkpt>
      <trkpt lat="69.12997" lon="15.66975">
        <ele>45.718155</ele>
        <time>2020-08-24T09:54:59.292Z</time>
      </trkpt>
      <trkpt lat="69.13189" lon="15.67286">
        <ele>43.552554</ele>
        <time>2020-08-24T09:55:39.324Z</time>
      </trkpt>
      <trkpt lat="69.1339" lon="15.67477">
        <ele>45.25502</ele>
        <time>2020-08-24T09:56:21.275Z</time>
      </trkpt>
      <trkpt lat="69.13581" lon="15.67527">
        <ele>49.36325</ele>
        <time>2020-08-24T09:57:16.300Z</time>
      </trkpt>
      <trkpt lat="69.13634" lon="15.68003">
        <ele>49.632513</ele>
        <time>2020-08-24T09:57:58.276Z</time>
      </trkpt>
      <trkpt lat="69.1364" lon="15.68548">
        <ele>49.296719</ele>
        <time>2020-08-24T09:58:40.295Z</time>
      </trkpt>
      <trkpt lat="69.13651" lon="15.69073">
        <ele>49.822532</ele>
        <time>2020-08-24T09:59:20.292Z</time>
      </trkpt>
      <trkpt lat="69.13665" lon="15.69729">
        <ele>47.003704</ele>
        <time>2020-08-24T10:00:02.277Z</time>
      </trkpt>
      <trkpt lat="69.13678" lon="15.70415">
        <ele>46.165749</ele>
        <time>2020-08-24T10:00:42.306Z</time>
      </trkpt>
      <trkpt lat="69.13689" lon="15.70947">
        <ele>48.253362</ele>
        <time>2020-08-24T10:01:22.312Z</time>
      </trkpt>
      <trkpt lat="69.13702" lon="15.71535">
        <ele>48.080312</ele>
        <time>2020-08-24T10:02:02.294Z</time>
      </trkpt>
      <trkpt lat="69.13717" lon="15.7223">
        <ele>46.515825</ele>
        <time>2020-08-24T10:02:42.294Z</time>
      </trkpt>
      <trkpt lat="69.13748" lon="15.72969">
        <ele>45.670282</ele>
        <time>2020-08-24T10:03:24.304Z</time>
      </trkpt>
      <trkpt lat="69.139" lon="15.73525">
        <ele>47.18638</ele>
        <time>2020-08-24T10:04:12.272Z</time>
      </trkpt>
      <trkpt lat="69.14038" lon="15.74031">
        <ele>47.59812</ele>
        <time>2020-08-24T10:05:03.289Z</time>
      </trkpt>
      <trkpt lat="69.14133" lon="15.74527">
        <ele>45.960868</ele>
        <time>2020-08-24T10:05:43.297Z</time>
      </trkpt>
      <trkpt lat="69.14231" lon="15.7508">
        <ele>45.777948</ele>
        <time>2020-08-24T10:06:25.286Z</time>
      </trkpt>
      <trkpt lat="69.14341" lon="15.7562">
        <ele>45.494877</ele>
        <time>2020-08-24T10:07:05.286Z</time>
      </trkpt>
      <trkpt lat="69.14477" lon="15.76071">
        <ele>46.362309</ele>
        <time>2020-08-24T10:07:47.286Z</time>
      </trkpt>
      <trkpt lat="69.14612" lon="15.76521">
        <ele>47.616609</ele>
        <time>2020-08-24T10:08:33.292Z</time>
      </trkpt>
      <trkpt lat="69.14761" lon="15.77027">
        <ele>47.501473</ele>
        <time>2020-08-24T10:09:26.278Z</time>
      </trkpt>
      <trkpt lat="69.14907" lon="15.77576">
        <ele>47.363227</ele>
        <time>2020-08-24T10:10:21.310Z</time>
      </trkpt>
      <trkpt lat="69.15037" lon="15.78068">
        <ele>48.022341</ele>
        <time>2020-08-24T10:11:09.278Z</time>
      </trkpt>
      <trkpt lat="69.15159" lon="15.7852">
        <ele>47.693139</ele>
        <time>2020-08-24T10:11:53.272Z</time>
      </trkpt>
      <trkpt lat="69.15276" lon="15.78963">
        <ele>46.444678</ele>
        <time>2020-08-24T10:12:35.300Z</time>
      </trkpt>
      <trkpt lat="69.15415" lon="15.79403">
        <ele>47.564555</ele>
        <time>2020-08-24T10:13:17.277Z</time>
      </trkpt>
      <trkpt lat="69.15572" lon="15.79746">
        <ele>46.671191</ele>
        <time>2020-08-24T10:13:57.272Z</time>
      </trkpt>
      <trkpt lat="69.15729" lon="15.80081">
        <ele>46.064815</ele>
        <time>2020-08-24T10:14:37.290Z</time>
      </trkpt>
      <trkpt lat="69.15891" lon="15.80425">
        <ele>46.340582</ele>
        <time>2020-08-24T10:15:21.287Z</time>
      </trkpt>
      <trkpt lat="69.1604" lon="15.80743">
        <ele>45.578375</ele>
        <time>2020-08-24T10:16:01.305Z</time>
      </trkpt>
      <trkpt lat="69.16206" lon="15.81096">
        <ele>45.116118</ele>
        <time>2020-08-24T10:16:43.285Z</time>
      </trkpt>
      <trkpt lat="69.16372" lon="15.81436">
        <ele>45.255497</ele>
        <time>2020-08-24T10:17:23.321Z</time>
      </trkpt>
      <trkpt lat="69.16567" lon="15.81633">
        <ele>45.437321</ele>
        <time>2020-08-24T10:18:07.300Z</time>
      </trkpt>
      <trkpt lat="69.16801" lon="15.81793">
        <ele>44.310091</ele>
        <time>2020-08-24T10:19:02.283Z</time>
      </trkpt>
      <trkpt lat="69.16998" lon="15.81819">
        <ele>43.066773</ele>
        <time>2020-08-24T10:19:44.280Z</time>
      </trkpt>
      <trkpt lat="69.17234" lon="15.81827">
        <ele>42.750313</ele>
        <time>2020-08-24T10:20:38.310Z</time>
      </trkpt>
      <trkpt lat="69.17464" lon="15.81835">
        <ele>44.007092</ele>
        <time>2020-08-24T10:21:38.279Z</time>
      </trkpt>
      <trkpt lat="69.17697" lon="15.81839">
        <ele>43.580634</ele>
        <time>2020-08-24T10:22:35.272Z</time>
      </trkpt>
      <trkpt lat="69.17903" lon="15.81904">
        <ele>42.309726</ele>
        <time>2020-08-24T10:23:16.275Z</time>
      </trkpt>
      <trkpt lat="69.18134" lon="15.82058">
        <ele>43.694358</ele>
        <time>2020-08-24T10:24:17.286Z</time>
      </trkpt>
      <trkpt lat="69.18333" lon="15.8247">
        <ele>45.377826</ele>
        <time>2020-08-24T10:25:17.302Z</time>
      </trkpt>
      <trkpt lat="69.18513" lon="15.82757">
        <ele>44.120447</ele>
        <time>2020-08-24T10:26:00.299Z</time>
      </trkpt>
      <trkpt lat="69.18712" lon="15.82909">
        <ele>42.139855</ele>
        <time>2020-08-24T10:26:40.292Z</time>
      </trkpt>
      <trkpt lat="69.18938" lon="15.83083">
        <ele>43.165326</ele>
        <time>2020-08-24T10:27:34.287Z</time>
      </trkpt>
      <trkpt lat="69.19144" lon="15.83303">
        <ele>46.55619</ele>
        <time>2020-08-24T10:28:34.286Z</time>
      </trkpt>
      <trkpt lat="69.193" lon="15.83662">
        <ele>45.397129</ele>
        <time>2020-08-24T10:29:14.303Z</time>
      </trkpt>
      <trkpt lat="69.19457" lon="15.84028">
        <ele>44.591549</ele>
        <time>2020-08-24T10:29:54.295Z</time>
      </trkpt>
      <trkpt lat="69.19594" lon="15.84468">
        <ele>46.121348</ele>
        <time>2020-08-24T10:30:36.291Z</time>
      </trkpt>
      <trkpt lat="69.19695" lon="15.85041">
        <ele>47.031897</ele>
        <time>2020-08-24T10:31:26.312Z</time>
      </trkpt>
      <trkpt lat="69.19827" lon="15.85461">
        <ele>45.397902</ele>
        <time>2020-08-24T10:32:08.271Z</time>
      </trkpt>
      <trkpt lat="69.20023" lon="15.85772">
        <ele>45.45854</ele>
        <time>2020-08-24T10:32:59.280Z</time>
      </trkpt>
      <trkpt lat="69.20205" lon="15.86024">
        <ele>45.33679</ele>
        <time>2020-08-24T10:33:39.284Z</time>
      </trkpt>
      <trkpt lat="69.20414" lon="15.86267">
        <ele>45.251338</ele>
        <time>2020-08-24T10:34:31.274Z</time>
      </trkpt>
      <trkpt lat="69.20652" lon="15.86194">
        <ele>43.129269</ele>
        <time>2020-08-24T10:35:31.299Z</time>
      </trkpt>
      <trkpt lat="69.20864" lon="15.86302">
        <ele>43.555011</ele>
        <time>2020-08-24T10:36:21.292Z</time>
      </trkpt>
      <trkpt lat="69.21048" lon="15.86544">
        <ele>44.861608</ele>
        <time>2020-08-24T10:37:09.325Z</time>
      </trkpt>
      <trkpt lat="69.21195" lon="15.86986">
        <ele>47.613897</ele>
        <time>2020-08-24T10:38:06.276Z</time>
      </trkpt>
      <trkpt lat="69.21241" lon="15.87602">
        <ele>50.614878</ele>
        <time>2020-08-24T10:38:50.275Z</time>
      </trkpt>
      <trkpt lat="69.21296" lon="15.88201">
        <ele>54.655046</ele>
        <time>2020-08-24T10:39:41.315Z</time>
      </trkpt>
      <trkpt lat="69.21338" lon="15.88738">
        <ele>52.391191</ele>
        <time>2020-08-24T10:40:21.323Z</time>
      </trkpt>
      <trkpt lat="69.2138" lon="15.89317">
        <ele>55.804204</ele>
        <time>2020-08-24T10:41:05.295Z</time>
      </trkpt>
      <trkpt lat="69.21432" lon="15.89997">
        <ele>61.464944</ele>
        <time>2020-08-24T10:42:08.298Z</time>
      </trkpt>
      <trkpt lat="69.21524" lon="15.90498">
        <ele>63.969575</ele>
        <time>2020-08-24T10:43:25.316Z</time>
      </trkpt>
      <trkpt lat="69.21644" lon="15.91047">
        <ele>64.398268</ele>
        <time>2020-08-24T10:44:20.285Z</time>
      </trkpt>
      <trkpt lat="69.21767" lon="15.91489">
        <ele>62.948653</ele>
        <time>2020-08-24T10:45:02.294Z</time>
      </trkpt>
      <trkpt lat="69.21923" lon="15.91901">
        <ele>63.585867</ele>
        <time>2020-08-24T10:45:49.286Z</time>
      </trkpt>
      <trkpt lat="69.2209" lon="15.9226">
        <ele>64.257636</ele>
        <time>2020-08-24T10:46:31.286Z</time>
      </trkpt>
      <trkpt lat="69.22262" lon="15.92631">
        <ele>63.856415</ele>
        <time>2020-08-24T10:47:11.308Z</time>
      </trkpt>
      <trkpt lat="69.22429" lon="15.92989">
        <ele>62.423992</ele>
        <time>2020-08-24T10:47:51.344Z</time>
      </trkpt>
      <trkpt lat="69.22596" lon="15.9335">
        <ele>63.954345</ele>
        <time>2020-08-24T10:48:31.302Z</time>
      </trkpt>
      <trkpt lat="69.22773" lon="15.93728">
        <ele>68.148531</ele>
        <time>2020-08-24T10:49:18.303Z</time>
      </trkpt>
      <trkpt lat="69.22981" lon="15.94051">
        <ele>77.029471</ele>
        <time>2020-08-24T10:50:18.328Z</time>
      </trkpt>
      <trkpt lat="69.23176" lon="15.94265">
        <ele>83.841346</ele>
        <time>2020-08-24T10:51:32.290Z</time>
      </trkpt>
      <trkpt lat="69.23361" lon="15.94467">
        <ele>95.738288</ele>
        <time>2020-08-24T10:53:27.304Z</time>
      </trkpt>
      <trkpt lat="69.23525" lon="15.94777">
        <ele>103.665626</ele>
        <time>2020-08-24T10:55:14.310Z</time>
      </trkpt>
      <trkpt lat="69.23738" lon="15.95333">
        <ele>102.886328</ele>
        <time>2020-08-24T10:56:10.284Z</time>
      </trkpt>
      <trkpt lat="69.23911" lon="15.95761">
        <ele>100.799793</ele>
        <time>2020-08-24T10:56:43.286Z</time>
      </trkpt>
      <trkpt lat="69.24105" lon="15.96168">
        <ele>88.200732</ele>
        <time>2020-08-24T10:57:12.298Z</time>
      </trkpt>
      <trkpt lat="69.24296" lon="15.96763">
        <ele>75.620067</ele>
        <time>2020-08-24T10:57:51.297Z</time>
      </trkpt>
      <trkpt lat="69.24466" lon="15.97069">
        <ele>72.162864</ele>
        <time>2020-08-24T10:58:16.334Z</time>
      </trkpt>
      <trkpt lat="69.24684" lon="15.96943">
        <ele>71.8527</ele>
        <time>2020-08-24T10:58:56.323Z</time>
      </trkpt>
      <trkpt lat="69.24885" lon="15.96799">
        <ele>74.887905</ele>
        <time>2020-08-24T10:59:36.291Z</time>
      </trkpt>
      <trkpt lat="69.25095" lon="15.96486">
        <ele>74.74347</ele>
        <time>2020-08-24T11:00:27.279Z</time>
      </trkpt>
      <trkpt lat="69.25295" lon="15.96134">
        <ele>73.203924</ele>
        <time>2020-08-24T11:01:11.328Z</time>
      </trkpt>
      <trkpt lat="69.25478" lon="15.95756">
        <ele>73.695162</ele>
        <time>2020-08-24T11:04:44.311Z</time>
      </trkpt>
      <trkpt lat="69.25619" lon="15.96021">
        <ele>71.032053</ele>
        <time>2020-08-24T11:05:32.307Z</time>
      </trkpt>
      <trkpt lat="69.25746" lon="15.96518">
        <ele>73.799386</ele>
        <time>2020-08-24T11:06:25.289Z</time>
      </trkpt>
      <trkpt lat="69.25959" lon="15.96531">
        <ele>84.062301</ele>
        <time>2020-08-24T11:07:39.285Z</time>
      </trkpt>
      <trkpt lat="69.26209" lon="15.96296">
        <ele>73.29948</ele>
        <time>2020-08-24T11:08:22.296Z</time>
      </trkpt>
      <trkpt lat="69.26348" lon="15.9589">
        <ele>76.977593</ele>
        <time>2020-08-24T11:09:22.308Z</time>
      </trkpt>
      <trkpt lat="69.26553" lon="15.95753">
        <ele>75.007996</ele>
        <time>2020-08-24T11:10:03.284Z</time>
      </trkpt>
      <trkpt lat="69.26788" lon="15.96035">
        <ele>65.39402</ele>
        <time>2020-08-24T11:10:45.298Z</time>
      </trkpt>
      <trkpt lat="69.27021" lon="15.95835">
        <ele>53.142502</ele>
        <time>2020-08-24T11:11:25.330Z</time>
      </trkpt>
      <trkpt lat="69.27209" lon="15.95826">
        <ele>46.957912</ele>
        <time>2020-08-24T11:12:07.319Z</time>
      </trkpt>
      <trkpt lat="69.27336" lon="15.96505">
        <ele>47.939871</ele>
        <time>2020-08-24T11:12:47.295Z</time>
      </trkpt>
      <trkpt lat="69.27525" lon="15.96884">
        <ele>42.58679</ele>
        <time>2020-08-24T11:13:27.300Z</time>
      </trkpt>
      <trkpt lat="69.27668" lon="15.97252">
        <ele>43.785955</ele>
        <time>2020-08-24T11:14:07.288Z</time>
      </trkpt>
      <trkpt lat="69.27806" lon="15.97675">
        <ele>47.777711</ele>
        <time>2020-08-24T11:14:49.304Z</time>
      </trkpt>
      <trkpt lat="69.27938" lon="15.98072">
        <ele>48.184209</ele>
        <time>2020-08-24T11:15:29.337Z</time>
      </trkpt>
      <trkpt lat="69.2809" lon="15.98532">
        <ele>46.124174</ele>
        <time>2020-08-24T11:16:20.283Z</time>
      </trkpt>
      <trkpt lat="69.28255" lon="15.99012">
        <ele>50.434991</ele>
        <time>2020-08-24T11:17:20.298Z</time>
      </trkpt>
      <trkpt lat="69.28474" lon="15.9899">
        <ele>52.713933</ele>
        <time>2020-08-24T11:18:02.279Z</time>
      </trkpt>
      <trkpt lat="69.28728" lon="15.98934">
        <ele>50.426552</ele>
        <time>2020-08-24T11:18:44.314Z</time>
      </trkpt>
      <trkpt lat="69.28938" lon="15.99092">
        <ele>50.945404</ele>
        <time>2020-08-24T11:19:34.312Z</time>
      </trkpt>
      <trkpt lat="69.29138" lon="15.99258">
        <ele>52.056973</ele>
        <time>2020-08-24T11:20:18.287Z</time>
      </trkpt>
      <trkpt lat="69.29348" lon="15.99477">
        <ele>52.241323</ele>
        <time>2020-08-24T11:21:11.295Z</time>
      </trkpt>
      <trkpt lat="69.29656" lon="15.99376">
        <ele>55.347316</ele>
        <time>2020-08-24T11:22:02.284Z</time>
      </trkpt>
      <trkpt lat="69.29856" lon="15.99507">
        <ele>56.584402</ele>
        <time>2020-08-24T11:22:49.291Z</time>
      </trkpt>
      <trkpt lat="69.29811" lon="16.00158">
        <ele>48.34851</ele>
        <time>2020-08-24T11:23:29.296Z</time>
      </trkpt>
      <trkpt lat="69.29587" lon="16.00529">
        <ele>46.925844</ele>
        <time>2020-08-24T11:24:09.285Z</time>
      </trkpt>
      <trkpt lat="69.29497" lon="16.01135">
        <ele>46.421268</ele>
        <time>2020-08-24T11:24:56.315Z</time>
      </trkpt>
      <trkpt lat="69.29317" lon="16.01699">
        <ele>48.055626</ele>
        <time>2020-08-24T11:25:59.296Z</time>
      </trkpt>
      <trkpt lat="69.29283" lon="16.02302">
        <ele>47.068139</ele>
        <time>2020-08-24T11:26:43.297Z</time>
      </trkpt>
      <trkpt lat="69.29377" lon="16.02838">
        <ele>47.550403</ele>
        <time>2020-08-24T11:27:23.306Z</time>
      </trkpt>
      <trkpt lat="69.29533" lon="16.03234">
        <ele>47.278583</ele>
        <time>2020-08-24T11:28:09.300Z</time>
      </trkpt>
      <trkpt lat="69.29694" lon="16.03665">
        <ele>45.501746</ele>
        <time>2020-08-24T11:28:51.306Z</time>
      </trkpt>
      <trkpt lat="69.29778" lon="16.04357">
        <ele>46.485777</ele>
        <time>2020-08-24T11:29:31.292Z</time>
      </trkpt>
      <trkpt lat="69.2979" lon="16.04997">
        <ele>44.522769</ele>
        <time>2020-08-24T11:30:11.298Z</time>
      </trkpt>
      <trkpt lat="69.29997" lon="16.05314">
        <ele>44.560088</ele>
        <time>2020-08-24T11:30:51.292Z</time>
      </trkpt>
      <trkpt lat="69.30118" lon="16.05826">
        <ele>49.262309</ele>
        <time>2020-08-24T11:31:46.295Z</time>
      </trkpt>
      <trkpt lat="69.30286" lon="16.06351">
        <ele>44.562394</ele>
        <time>2020-08-24T11:32:30.304Z</time>
      </trkpt>
      <trkpt lat="69.30374" lon="16.06947">
        <ele>44.913863</ele>
        <time>2020-08-24T11:34:44.300Z</time>
      </trkpt>
    </trkseg>
  </trk>
</gpx>